sensor_id;sensor_type;location;lat;lon;timestamp;P1;durP1;ratioP1;P2;durP2;ratioP2
10154;SDS011;5118;48.570;7.916;2023-06-04T00:00:40;6.43;;;4.47;;
10154;SDS011;5118;48.570;7.916;2023-06-04T00:03:08;4.20;;;3.80;;
10154;SDS011;5118;48.570;7.916;2023-06-04T00:05:38;4.80;;;4.00;;
10154;SDS011;5118;48.570;7.916;2023-06-04T00:08:07;7.07;;;3.90;;
10154;SDS011;5118;48.570;7.916;2023-06-04T00:10:35;6.73;;;4.00;;
10154;SDS011;5118;48.570;7.916;2023-06-04T00:13:06;5.00;;;3.77;;
10154;SDS011;5118;48.570;7.916;2023-06-04T00:15:34;5.90;;;3.83;;
10154;SDS011;5118;48.570;7.916;2023-06-04T00:18:03;5.87;;;4.10;;
10154;SDS011;5118;48.570;7.916;2023-06-04T00:20:31;6.30;;;3.80;;
10154;SDS011;5118;48.570;7.916;2023-06-04T00:23:01;13.83;;;4.13;;
10154;SDS011;5118;48.570;7.916;2023-06-04T00:25:29;6.23;;;3.77;;
10154;SDS011;5118;48.570;7.916;2023-06-04T00:27:58;6.63;;;3.90;;
10154;SDS011;5118;48.570;7.916;2023-06-04T00:30:26;6.57;;;3.53;;
10154;SDS011;5118;48.570;7.916;2023-06-04T00:32:54;6.80;;;3.80;;
10154;SDS011;5118;48.570;7.916;2023-06-04T00:35:23;5.47;;;3.70;;
10154;SDS011;5118;48.570;7.916;2023-06-04T00:37:51;4.40;;;3.40;;
10154;SDS011;5118;48.570;7.916;2023-06-04T00:40:21;5.80;;;3.60;;
10154;SDS011;5118;48.570;7.916;2023-06-04T00:42:49;4.77;;;3.70;;
10154;SDS011;5118;48.570;7.916;2023-06-04T00:45:17;6.20;;;3.73;;
10154;SDS011;5118;48.570;7.916;2023-06-04T00:47:46;6.73;;;3.80;;
10154;SDS011;5118;48.570;7.916;2023-06-04T00:50:15;5.50;;;3.60;;
10154;SDS011;5118;48.570;7.916;2023-06-04T00:52:44;4.50;;;3.53;;
10154;SDS011;5118;48.570;7.916;2023-06-04T00:55:12;10.07;;;3.80;;
10154;SDS011;5118;48.570;7.916;2023-06-04T00:57:42;5.13;;;3.67;;
10154;SDS011;5118;48.570;7.916;2023-06-04T01:00:11;6.70;;;3.60;;
10154;SDS011;5118;48.570;7.916;2023-06-04T01:02:42;7.00;;;3.70;;
10154;SDS011;5118;48.570;7.916;2023-06-04T01:05:16;6.27;;;4.20;;
10154;SDS011;5118;48.570;7.916;2023-06-04T01:07:49;4.60;;;3.70;;
10154;SDS011;5118;48.570;7.916;2023-06-04T01:10:18;7.57;;;4.20;;
10154;SDS011;5118;48.570;7.916;2023-06-04T01:12:50;7.20;;;3.90;;
10154;SDS011;5118;48.570;7.916;2023-06-04T01:15:18;5.07;;;3.53;;
10154;SDS011;5118;48.570;7.916;2023-06-04T01:17:48;4.37;;;3.67;;
10154;SDS011;5118;48.570;7.916;2023-06-04T01:20:25;5.20;;;4.10;;
10154;SDS011;5118;48.570;7.916;2023-06-04T01:23:15;6.03;;;4.00;;
10154;SDS011;5118;48.570;7.916;2023-06-04T01:25:55;5.40;;;3.80;;
10154;SDS011;5118;48.570;7.916;2023-06-04T01:28:25;5.90;;;4.00;;
10154;SDS011;5118;48.570;7.916;2023-06-04T01:30:54;7.20;;;3.90;;
10154;SDS011;5118;48.570;7.916;2023-06-04T01:33:23;4.37;;;3.97;;
10154;SDS011;5118;48.570;7.916;2023-06-04T01:35:51;4.37;;;3.87;;
10154;SDS011;5118;48.570;7.916;2023-06-04T01:38:19;4.00;;;3.37;;
10154;SDS011;5118;48.570;7.916;2023-06-04T01:40:48;4.63;;;3.80;;
10154;SDS011;5118;48.570;7.916;2023-06-04T01:43:17;5.57;;;3.83;;
10154;SDS011;5118;48.570;7.916;2023-06-04T01:45:47;4.47;;;3.70;;
10154;SDS011;5118;48.570;7.916;2023-06-04T01:48:15;5.13;;;3.70;;
10154;SDS011;5118;48.570;7.916;2023-06-04T01:50:44;6.40;;;3.77;;
10154;SDS011;5118;48.570;7.916;2023-06-04T01:53:12;4.50;;;3.70;;
10154;SDS011;5118;48.570;7.916;2023-06-04T01:55:41;8.73;;;3.73;;
10154;SDS011;5118;48.570;7.916;2023-06-04T01:58:09;6.97;;;4.27;;
10154;SDS011;5118;48.570;7.916;2023-06-04T02:00:38;6.50;;;3.80;;
10154;SDS011;5118;48.570;7.916;2023-06-04T02:03:07;4.97;;;3.93;;
10154;SDS011;5118;48.570;7.916;2023-06-04T02:05:37;7.23;;;3.50;;
10154;SDS011;5118;48.570;7.916;2023-06-04T02:08:05;5.13;;;3.43;;
10154;SDS011;5118;48.570;7.916;2023-06-04T02:10:35;4.87;;;3.80;;
10154;SDS011;5118;48.570;7.916;2023-06-04T02:13:03;5.83;;;3.93;;
10154;SDS011;5118;48.570;7.916;2023-06-04T02:15:33;8.40;;;3.60;;
10154;SDS011;5118;48.570;7.916;2023-06-04T02:18:12;4.23;;;3.63;;
10154;SDS011;5118;48.570;7.916;2023-06-04T02:20:44;4.50;;;3.70;;
10154;SDS011;5118;48.570;7.916;2023-06-04T02:23:13;5.00;;;3.50;;
10154;SDS011;5118;48.570;7.916;2023-06-04T02:25:44;6.30;;;3.67;;
10154;SDS011;5118;48.570;7.916;2023-06-04T02:28:13;8.60;;;3.77;;
10154;SDS011;5118;48.570;7.916;2023-06-04T02:30:41;5.67;;;3.70;;
10154;SDS011;5118;48.570;7.916;2023-06-04T02:33:11;4.10;;;3.70;;
10154;SDS011;5118;48.570;7.916;2023-06-04T02:35:40;6.60;;;3.67;;
10154;SDS011;5118;48.570;7.916;2023-06-04T02:38:08;5.57;;;3.50;;
10154;SDS011;5118;48.570;7.916;2023-06-04T02:40:36;6.63;;;3.70;;
10154;SDS011;5118;48.570;7.916;2023-06-04T02:43:05;5.73;;;3.40;;
10154;SDS011;5118;48.570;7.916;2023-06-04T02:45:34;4.63;;;3.20;;
10154;SDS011;5118;48.570;7.916;2023-06-04T02:48:02;3.53;;;3.23;;
10154;SDS011;5118;48.570;7.916;2023-06-04T02:50:32;6.30;;;4.00;;
10154;SDS011;5118;48.570;7.916;2023-06-04T02:53:00;5.77;;;3.53;;
10154;SDS011;5118;48.570;7.916;2023-06-04T02:55:29;4.93;;;3.70;;
10154;SDS011;5118;48.570;7.916;2023-06-04T02:57:57;4.97;;;3.40;;
10154;SDS011;5118;48.570;7.916;2023-06-04T03:00:25;6.53;;;3.67;;
10154;SDS011;5118;48.570;7.916;2023-06-04T03:02:53;6.07;;;3.40;;
10154;SDS011;5118;48.570;7.916;2023-06-04T03:05:28;4.70;;;3.27;;
10154;SDS011;5118;48.570;7.916;2023-06-04T03:08:00;5.87;;;3.70;;
10154;SDS011;5118;48.570;7.916;2023-06-04T03:10:30;6.07;;;3.60;;
10154;SDS011;5118;48.570;7.916;2023-06-04T03:12:59;5.40;;;3.57;;
10154;SDS011;5118;48.570;7.916;2023-06-04T03:15:28;5.10;;;3.37;;
10154;SDS011;5118;48.570;7.916;2023-06-04T03:17:56;8.03;;;3.77;;
10154;SDS011;5118;48.570;7.916;2023-06-04T03:20:24;4.33;;;3.37;;
10154;SDS011;5118;48.570;7.916;2023-06-04T03:22:52;7.20;;;3.40;;
10154;SDS011;5118;48.570;7.916;2023-06-04T03:25:23;4.47;;;3.40;;
10154;SDS011;5118;48.570;7.916;2023-06-04T03:27:51;4.33;;;3.30;;
10154;SDS011;5118;48.570;7.916;2023-06-04T03:30:20;8.10;;;3.77;;
10154;SDS011;5118;48.570;7.916;2023-06-04T03:32:57;5.50;;;3.37;;
10154;SDS011;5118;48.570;7.916;2023-06-04T03:35:27;5.57;;;3.50;;
10154;SDS011;5118;48.570;7.916;2023-06-04T03:37:55;4.67;;;3.30;;
10154;SDS011;5118;48.570;7.916;2023-06-04T03:40:25;3.60;;;3.30;;
10154;SDS011;5118;48.570;7.916;2023-06-04T03:42:54;6.80;;;3.57;;
10154;SDS011;5118;48.570;7.916;2023-06-04T03:45:26;5.07;;;3.33;;
10154;SDS011;5118;48.570;7.916;2023-06-04T03:47:55;4.07;;;3.20;;
10154;SDS011;5118;48.570;7.916;2023-06-04T03:50:25;6.50;;;3.63;;
10154;SDS011;5118;48.570;7.916;2023-06-04T03:52:55;3.80;;;3.33;;
10154;SDS011;5118;48.570;7.916;2023-06-04T03:55:25;6.30;;;3.40;;
10154;SDS011;5118;48.570;7.916;2023-06-04T03:57:54;4.97;;;3.20;;
10154;SDS011;5118;48.570;7.916;2023-06-04T04:00:23;3.30;;;3.00;;
10154;SDS011;5118;48.570;7.916;2023-06-04T04:02:53;4.47;;;3.40;;
10154;SDS011;5118;48.570;7.916;2023-06-04T04:05:27;6.43;;;3.17;;
10154;SDS011;5118;48.570;7.916;2023-06-04T04:07:56;5.03;;;3.30;;
10154;SDS011;5118;48.570;7.916;2023-06-04T04:10:29;7.07;;;3.17;;
10154;SDS011;5118;48.570;7.916;2023-06-04T04:12:58;6.63;;;3.13;;
10154;SDS011;5118;48.570;7.916;2023-06-04T04:15:29;4.77;;;3.00;;
10154;SDS011;5118;48.570;7.916;2023-06-04T04:18:00;3.50;;;3.20;;
10154;SDS011;5118;48.570;7.916;2023-06-04T04:20:29;4.87;;;3.50;;
10154;SDS011;5118;48.570;7.916;2023-06-04T04:23:02;4.60;;;3.07;;
10154;SDS011;5118;48.570;7.916;2023-06-04T04:25:32;4.00;;;3.20;;
10154;SDS011;5118;48.570;7.916;2023-06-04T04:30:34;4.00;;;2.90;;
10154;SDS011;5118;48.570;7.916;2023-06-04T04:33:04;6.50;;;3.07;;
10154;SDS011;5118;48.570;7.916;2023-06-04T04:35:37;3.90;;;2.80;;
10154;SDS011;5118;48.570;7.916;2023-06-04T04:38:07;3.60;;;2.90;;
10154;SDS011;5118;48.570;7.916;2023-06-04T04:40:44;5.57;;;3.07;;
10154;SDS011;5118;48.570;7.916;2023-06-04T04:43:15;3.63;;;2.83;;
10154;SDS011;5118;48.570;7.916;2023-06-04T04:45:43;3.30;;;3.00;;
10154;SDS011;5118;48.570;7.916;2023-06-04T04:48:11;3.43;;;2.80;;
10154;SDS011;5118;48.570;7.916;2023-06-04T04:50:40;3.47;;;2.70;;
10154;SDS011;5118;48.570;7.916;2023-06-04T04:53:08;4.43;;;2.97;;
10154;SDS011;5118;48.570;7.916;2023-06-04T04:55:37;4.63;;;2.70;;
10154;SDS011;5118;48.570;7.916;2023-06-04T04:58:07;5.33;;;2.83;;
10154;SDS011;5118;48.570;7.916;2023-06-04T05:00:36;4.50;;;2.90;;
10154;SDS011;5118;48.570;7.916;2023-06-04T05:03:05;5.47;;;2.87;;
10154;SDS011;5118;48.570;7.916;2023-06-04T05:05:33;3.90;;;2.80;;
10154;SDS011;5118;48.570;7.916;2023-06-04T05:08:04;5.17;;;2.90;;
10154;SDS011;5118;48.570;7.916;2023-06-04T05:10:37;3.30;;;2.87;;
10154;SDS011;5118;48.570;7.916;2023-06-04T05:13:08;2.97;;;2.67;;
10154;SDS011;5118;48.570;7.916;2023-06-04T05:15:44;4.17;;;2.70;;
10154;SDS011;5118;48.570;7.916;2023-06-04T05:18:17;7.53;;;3.07;;
10154;SDS011;5118;48.570;7.916;2023-06-04T05:20:48;5.60;;;2.60;;
10154;SDS011;5118;48.570;7.916;2023-06-04T05:23:17;4.47;;;2.70;;
10154;SDS011;5118;48.570;7.916;2023-06-04T05:25:48;3.27;;;2.63;;
10154;SDS011;5118;48.570;7.916;2023-06-04T05:28:19;4.13;;;2.60;;
10154;SDS011;5118;48.570;7.916;2023-06-04T05:30:52;4.50;;;2.73;;
10154;SDS011;5118;48.570;7.916;2023-06-04T05:33:28;2.60;;;2.40;;
10154;SDS011;5118;48.570;7.916;2023-06-04T05:36:02;4.73;;;2.70;;
10154;SDS011;5118;48.570;7.916;2023-06-04T05:38:37;4.93;;;2.73;;
10154;SDS011;5118;48.570;7.916;2023-06-04T05:41:09;4.27;;;2.60;;
10154;SDS011;5118;48.570;7.916;2023-06-04T05:43:40;5.27;;;2.63;;
10154;SDS011;5118;48.570;7.916;2023-06-04T05:46:13;4.33;;;2.97;;
10154;SDS011;5118;48.570;7.916;2023-06-04T05:48:44;3.17;;;2.73;;
10154;SDS011;5118;48.570;7.916;2023-06-04T05:51:12;3.23;;;2.40;;
10154;SDS011;5118;48.570;7.916;2023-06-04T05:53:41;4.07;;;2.43;;
10154;SDS011;5118;48.570;7.916;2023-06-04T05:56:10;3.50;;;2.63;;
10154;SDS011;5118;48.570;7.916;2023-06-04T05:58:38;4.77;;;2.60;;
10154;SDS011;5118;48.570;7.916;2023-06-04T06:01:10;3.07;;;2.70;;
10154;SDS011;5118;48.570;7.916;2023-06-04T06:03:38;2.50;;;2.30;;
10154;SDS011;5118;48.570;7.916;2023-06-04T06:06:07;5.23;;;2.80;;
10154;SDS011;5118;48.570;7.916;2023-06-04T06:08:37;3.30;;;2.33;;
10154;SDS011;5118;48.570;7.916;2023-06-04T06:11:05;5.70;;;2.90;;
10154;SDS011;5118;48.570;7.916;2023-06-04T06:13:37;4.93;;;2.73;;
10154;SDS011;5118;48.570;7.916;2023-06-04T06:16:08;3.57;;;2.87;;
10154;SDS011;5118;48.570;7.916;2023-06-04T06:18:37;3.67;;;2.80;;
10154;SDS011;5118;48.570;7.916;2023-06-04T06:21:06;3.67;;;2.80;;
10154;SDS011;5118;48.570;7.916;2023-06-04T06:23:35;4.47;;;2.67;;
10154;SDS011;5118;48.570;7.916;2023-06-04T06:26:05;5.03;;;2.77;;
10154;SDS011;5118;48.570;7.916;2023-06-04T06:28:42;4.17;;;2.90;;
10154;SDS011;5118;48.570;7.916;2023-06-04T06:31:13;8.50;;;3.10;;
10154;SDS011;5118;48.570;7.916;2023-06-04T06:33:43;3.23;;;2.73;;
10154;SDS011;5118;48.570;7.916;2023-06-04T06:36:11;4.10;;;2.80;;
10154;SDS011;5118;48.570;7.916;2023-06-04T06:38:39;3.50;;;2.90;;
10154;SDS011;5118;48.570;7.916;2023-06-04T06:41:08;3.43;;;3.00;;
10154;SDS011;5118;48.570;7.916;2023-06-04T06:43:36;3.10;;;2.80;;
10154;SDS011;5118;48.570;7.916;2023-06-04T06:46:05;3.70;;;2.80;;
10154;SDS011;5118;48.570;7.916;2023-06-04T06:48:34;4.97;;;2.97;;
10154;SDS011;5118;48.570;7.916;2023-06-04T06:51:03;3.67;;;2.87;;
10154;SDS011;5118;48.570;7.916;2023-06-04T06:53:32;3.47;;;3.07;;
10154;SDS011;5118;48.570;7.916;2023-06-04T06:56:00;3.60;;;3.20;;
10154;SDS011;5118;48.570;7.916;2023-06-04T06:58:29;4.40;;;2.90;;
10154;SDS011;5118;48.570;7.916;2023-06-04T07:00:57;4.70;;;3.00;;
10154;SDS011;5118;48.570;7.916;2023-06-04T07:03:26;4.53;;;2.90;;
10154;SDS011;5118;48.570;7.916;2023-06-04T07:05:56;3.27;;;2.90;;
10154;SDS011;5118;48.570;7.916;2023-06-04T07:08:24;3.37;;;2.70;;
10154;SDS011;5118;48.570;7.916;2023-06-04T07:10:52;3.13;;;2.70;;
10154;SDS011;5118;48.570;7.916;2023-06-04T07:13:21;3.93;;;2.80;;
10154;SDS011;5118;48.570;7.916;2023-06-04T07:15:49;4.20;;;2.73;;
10154;SDS011;5118;48.570;7.916;2023-06-04T07:18:18;3.63;;;2.53;;
10154;SDS011;5118;48.570;7.916;2023-06-04T07:20:47;3.17;;;2.67;;
10154;SDS011;5118;48.570;7.916;2023-06-04T07:23:17;3.65;;;2.80;;
10154;SDS011;5118;48.570;7.916;2023-06-04T07:25:46;5.60;;;2.92;;
10154;SDS011;5118;48.570;7.916;2023-06-04T07:28:14;3.72;;;2.83;;
10154;SDS011;5118;48.570;7.916;2023-06-04T07:30:44;3.97;;;2.83;;
10154;SDS011;5118;48.570;7.916;2023-06-04T07:33:13;4.90;;;3.05;;
10154;SDS011;5118;48.570;7.916;2023-06-04T07:35:41;5.47;;;3.00;;
10154;SDS011;5118;48.570;7.916;2023-06-04T07:38:09;3.80;;;2.80;;
10154;SDS011;5118;48.570;7.916;2023-06-04T07:40:39;3.25;;;2.85;;
10154;SDS011;5118;48.570;7.916;2023-06-04T07:43:08;3.30;;;2.72;;
10154;SDS011;5118;48.570;7.916;2023-06-04T07:45:36;4.95;;;2.90;;
10154;SDS011;5118;48.570;7.916;2023-06-04T07:48:05;3.55;;;2.83;;
10154;SDS011;5118;48.570;7.916;2023-06-04T07:50:33;4.50;;;2.70;;
10154;SDS011;5118;48.570;7.916;2023-06-04T07:53:05;4.25;;;3.00;;
10154;SDS011;5118;48.570;7.916;2023-06-04T07:55:33;6.88;;;2.90;;
10154;SDS011;5118;48.570;7.916;2023-06-04T07:58:03;3.75;;;2.90;;
10154;SDS011;5118;48.570;7.916;2023-06-04T08:00:32;3.03;;;2.70;;
10154;SDS011;5118;48.570;7.916;2023-06-04T08:03:01;4.28;;;3.17;;
10154;SDS011;5118;48.570;7.916;2023-06-04T08:05:33;5.65;;;2.95;;
10154;SDS011;5118;48.570;7.916;2023-06-04T08:08:02;3.50;;;2.70;;
10154;SDS011;5118;48.570;7.916;2023-06-04T08:10:31;4.03;;;3.10;;
10154;SDS011;5118;48.570;7.916;2023-06-04T08:13:00;3.28;;;2.95;;
10154;SDS011;5118;48.570;7.916;2023-06-04T08:15:30;3.60;;;3.22;;
10154;SDS011;5118;48.570;7.916;2023-06-04T08:18:18;5.22;;;2.60;;
10154;SDS011;5118;48.570;7.916;2023-06-04T08:21:08;4.20;;;2.90;;
10154;SDS011;5118;48.570;7.916;2023-06-04T08:23:55;3.53;;;3.00;;
10154;SDS011;5118;48.570;7.916;2023-06-04T08:26:41;4.57;;;2.80;;
10154;SDS011;5118;48.570;7.916;2023-06-04T08:29:16;5.22;;;2.90;;
10154;SDS011;5118;48.570;7.916;2023-06-04T08:31:46;2.90;;;2.60;;
10154;SDS011;5118;48.570;7.916;2023-06-04T08:34:26;4.78;;;2.65;;
10154;SDS011;5118;48.570;7.916;2023-06-04T08:36:54;3.85;;;2.95;;
10154;SDS011;5118;48.570;7.916;2023-06-04T08:39:23;3.65;;;2.80;;
10154;SDS011;5118;48.570;7.916;2023-06-04T08:41:52;5.32;;;2.97;;
10154;SDS011;5118;48.570;7.916;2023-06-04T08:44:24;4.03;;;2.80;;
10154;SDS011;5118;48.570;7.916;2023-06-04T08:46:54;6.50;;;2.90;;
10154;SDS011;5118;48.570;7.916;2023-06-04T08:49:30;6.65;;;2.75;;
10154;SDS011;5118;48.570;7.916;2023-06-04T08:52:02;5.65;;;2.90;;
10154;SDS011;5118;48.570;7.916;2023-06-04T08:54:32;4.25;;;3.00;;
10154;SDS011;5118;48.570;7.916;2023-06-04T08:57:01;3.45;;;2.83;;
10154;SDS011;5118;48.570;7.916;2023-06-04T08:59:29;3.20;;;2.72;;
10154;SDS011;5118;48.570;7.916;2023-06-04T09:01:59;4.40;;;2.45;;
10154;SDS011;5118;48.570;7.916;2023-06-04T09:04:28;4.22;;;2.90;;
10154;SDS011;5118;48.570;7.916;2023-06-04T09:06:58;4.80;;;2.60;;
10154;SDS011;5118;48.570;7.916;2023-06-04T09:09:30;3.97;;;2.95;;
10154;SDS011;5118;48.570;7.916;2023-06-04T09:11:59;3.45;;;2.80;;
10154;SDS011;5118;48.570;7.916;2023-06-04T09:14:31;4.15;;;2.67;;
10154;SDS011;5118;48.570;7.916;2023-06-04T09:17:01;4.07;;;2.65;;
10154;SDS011;5118;48.570;7.916;2023-06-04T09:19:29;3.60;;;2.97;;
10154;SDS011;5118;48.570;7.916;2023-06-04T09:21:58;4.38;;;2.60;;
10154;SDS011;5118;48.570;7.916;2023-06-04T09:24:37;4.43;;;2.65;;
10154;SDS011;5118;48.570;7.916;2023-06-04T09:27:10;3.47;;;2.88;;
10154;SDS011;5118;48.570;7.916;2023-06-04T09:29:39;4.40;;;2.70;;
10154;SDS011;5118;48.570;7.916;2023-06-04T09:32:09;5.20;;;3.00;;
10154;SDS011;5118;48.570;7.916;2023-06-04T09:34:39;4.82;;;2.80;;
10154;SDS011;5118;48.570;7.916;2023-06-04T09:37:13;5.47;;;2.90;;
10154;SDS011;5118;48.570;7.916;2023-06-04T09:39:42;5.07;;;2.92;;
10154;SDS011;5118;48.570;7.916;2023-06-04T09:42:11;5.00;;;2.58;;
10154;SDS011;5118;48.570;7.916;2023-06-04T09:44:43;3.47;;;2.97;;
10154;SDS011;5118;48.570;7.916;2023-06-04T09:47:13;4.75;;;2.90;;
10154;SDS011;5118;48.570;7.916;2023-06-04T09:49:42;3.33;;;2.63;;
10154;SDS011;5118;48.570;7.916;2023-06-04T09:52:31;7.10;;;2.80;;
10154;SDS011;5118;48.570;7.916;2023-06-04T09:55:02;3.22;;;2.90;;
10154;SDS011;5118;48.570;7.916;2023-06-04T09:57:46;2.95;;;2.45;;
10154;SDS011;5118;48.570;7.916;2023-06-04T10:00:16;3.15;;;2.92;;
10154;SDS011;5118;48.570;7.916;2023-06-04T10:02:46;5.88;;;3.50;;
10154;SDS011;5118;48.570;7.916;2023-06-04T10:05:16;3.70;;;2.90;;
10154;SDS011;5118;48.570;7.916;2023-06-04T10:07:48;3.35;;;2.70;;
10154;SDS011;5118;48.570;7.916;2023-06-04T10:10:20;4.82;;;3.25;;
10154;SDS011;5118;48.570;7.916;2023-06-04T10:12:53;5.35;;;2.80;;
10154;SDS011;5118;48.570;7.916;2023-06-04T10:15:27;4.07;;;2.72;;
10154;SDS011;5118;48.570;7.916;2023-06-04T10:18:00;4.50;;;2.90;;
10154;SDS011;5118;48.570;7.916;2023-06-04T10:20:30;3.35;;;2.92;;
10154;SDS011;5118;48.570;7.916;2023-06-04T10:22:59;2.65;;;2.42;;
10154;SDS011;5118;48.570;7.916;2023-06-04T10:25:30;3.95;;;2.80;;
10154;SDS011;5118;48.570;7.916;2023-06-04T10:27:59;4.28;;;2.60;;
10154;SDS011;5118;48.570;7.916;2023-06-04T10:30:29;2.67;;;2.47;;
10154;SDS011;5118;48.570;7.916;2023-06-04T10:32:59;6.60;;;2.70;;
10154;SDS011;5118;48.570;7.916;2023-06-04T10:35:31;3.97;;;2.85;;
10154;SDS011;5118;48.570;7.916;2023-06-04T10:38:04;3.88;;;2.70;;
10154;SDS011;5118;48.570;7.916;2023-06-04T10:40:37;4.18;;;3.08;;
10154;SDS011;5118;48.570;7.916;2023-06-04T10:43:06;5.10;;;2.70;;
10154;SDS011;5118;48.570;7.916;2023-06-04T10:45:35;4.32;;;2.60;;
10154;SDS011;5118;48.570;7.916;2023-06-04T10:48:06;3.47;;;2.50;;
10154;SDS011;5118;48.570;7.916;2023-06-04T10:50:35;4.93;;;2.95;;
10154;SDS011;5118;48.570;7.916;2023-06-04T10:53:16;3.47;;;2.40;;
10154;SDS011;5118;48.570;7.916;2023-06-04T10:55:46;4.82;;;2.58;;
10154;SDS011;5118;48.570;7.916;2023-06-04T10:58:17;5.05;;;2.70;;
10154;SDS011;5118;48.570;7.916;2023-06-04T11:01:05;3.30;;;2.50;;
10154;SDS011;5118;48.570;7.916;2023-06-04T11:03:37;3.47;;;2.67;;
10154;SDS011;5118;48.570;7.916;2023-06-04T11:06:16;2.88;;;2.67;;
10154;SDS011;5118;48.570;7.916;2023-06-04T11:15:39;3.60;;;2.80;;
10154;SDS011;5118;48.570;7.916;2023-06-04T11:18:13;5.25;;;2.70;;
10154;SDS011;5118;48.570;7.916;2023-06-04T11:20:57;7.13;;;2.80;;
10154;SDS011;5118;48.570;7.916;2023-06-04T11:23:29;4.10;;;2.80;;
10154;SDS011;5118;48.570;7.916;2023-06-04T11:25:57;4.57;;;2.50;;
10154;SDS011;5118;48.570;7.916;2023-06-04T11:28:26;4.53;;;2.70;;
10154;SDS011;5118;48.570;7.916;2023-06-04T11:30:58;4.18;;;2.78;;
10154;SDS011;5118;48.570;7.916;2023-06-04T11:33:29;4.32;;;2.60;;
10154;SDS011;5118;48.570;7.916;2023-06-04T11:35:59;4.25;;;2.30;;
10154;SDS011;5118;48.570;7.916;2023-06-04T11:38:28;3.80;;;2.67;;
10154;SDS011;5118;48.570;7.916;2023-06-04T11:40:57;4.57;;;2.53;;
10154;SDS011;5118;48.570;7.916;2023-06-04T11:43:27;3.72;;;2.90;;
10154;SDS011;5118;48.570;7.916;2023-06-04T11:45:56;3.08;;;2.78;;
10154;SDS011;5118;48.570;7.916;2023-06-04T11:48:25;4.28;;;2.40;;
10154;SDS011;5118;48.570;7.916;2023-06-04T11:50:54;2.88;;;2.60;;
10154;SDS011;5118;48.570;7.916;2023-06-04T11:53:25;4.35;;;3.00;;
10154;SDS011;5118;48.570;7.916;2023-06-04T11:55:56;3.92;;;2.70;;
10154;SDS011;5118;48.570;7.916;2023-06-04T11:58:25;3.00;;;2.70;;
10154;SDS011;5118;48.570;7.916;2023-06-04T12:00:54;2.75;;;2.40;;
10154;SDS011;5118;48.570;7.916;2023-06-04T12:03:31;3.55;;;2.60;;
10154;SDS011;5118;48.570;7.916;2023-06-04T12:06:11;4.53;;;2.60;;
10154;SDS011;5118;48.570;7.916;2023-06-04T12:08:47;3.35;;;2.30;;
10154;SDS011;5118;48.570;7.916;2023-06-04T12:11:24;4.35;;;2.58;;
10154;SDS011;5118;48.570;7.916;2023-06-04T12:13:55;5.88;;;2.40;;
10154;SDS011;5118;48.570;7.916;2023-06-04T12:16:24;4.93;;;2.50;;
10154;SDS011;5118;48.570;7.916;2023-06-04T12:19:08;5.40;;;2.47;;
10154;SDS011;5118;48.570;7.916;2023-06-04T12:21:38;3.63;;;2.30;;
10154;SDS011;5118;48.570;7.916;2023-06-04T12:24:10;2.75;;;2.50;;
10154;SDS011;5118;48.570;7.916;2023-06-04T12:26:42;4.88;;;2.70;;
10154;SDS011;5118;48.570;7.916;2023-06-04T12:29:17;2.85;;;2.60;;
10154;SDS011;5118;48.570;7.916;2023-06-04T12:31:46;3.80;;;2.65;;
10154;SDS011;5118;48.570;7.916;2023-06-04T12:34:15;3.05;;;2.50;;
10154;SDS011;5118;48.570;7.916;2023-06-04T12:36:44;4.55;;;2.83;;
10154;SDS011;5118;48.570;7.916;2023-06-04T12:39:14;2.70;;;2.50;;
10154;SDS011;5118;48.570;7.916;2023-06-04T12:41:44;4.00;;;2.80;;
10154;SDS011;5118;48.570;7.916;2023-06-04T12:44:13;3.63;;;2.42;;
10154;SDS011;5118;48.570;7.916;2023-06-04T12:46:42;3.08;;;2.63;;
10154;SDS011;5118;48.570;7.916;2023-06-04T12:49:10;3.03;;;2.60;;
10154;SDS011;5118;48.570;7.916;2023-06-04T12:51:39;3.40;;;2.60;;
10154;SDS011;5118;48.570;7.916;2023-06-04T12:54:07;3.80;;;2.50;;
10154;SDS011;5118;48.570;7.916;2023-06-04T12:56:38;3.47;;;2.60;;
10154;SDS011;5118;48.570;7.916;2023-06-04T12:59:07;3.00;;;2.65;;
10154;SDS011;5118;48.570;7.916;2023-06-04T13:01:36;4.32;;;2.70;;
10154;SDS011;5118;48.570;7.916;2023-06-04T13:04:05;5.05;;;2.70;;
10154;SDS011;5118;48.570;7.916;2023-06-04T13:06:34;3.60;;;2.80;;
10154;SDS011;5118;48.570;7.916;2023-06-04T13:09:03;2.85;;;2.53;;
10154;SDS011;5118;48.570;7.916;2023-06-04T13:11:38;4.25;;;2.70;;
10154;SDS011;5118;48.570;7.916;2023-06-04T13:14:08;5.03;;;2.80;;
10154;SDS011;5118;48.570;7.916;2023-06-04T13:16:37;5.05;;;2.78;;
10154;SDS011;5118;48.570;7.916;2023-06-04T13:19:06;5.13;;;2.83;;
10154;SDS011;5118;48.570;7.916;2023-06-04T13:21:35;3.85;;;3.00;;
10154;SDS011;5118;48.570;7.916;2023-06-04T13:24:03;3.75;;;2.80;;
10154;SDS011;5118;48.570;7.916;2023-06-04T13:26:32;7.28;;;3.00;;
10154;SDS011;5118;48.570;7.916;2023-06-04T13:29:02;3.25;;;2.80;;
10154;SDS011;5118;48.570;7.916;2023-06-04T13:31:30;3.85;;;2.85;;
10154;SDS011;5118;48.570;7.916;2023-06-04T13:33:59;3.47;;;2.85;;
10154;SDS011;5118;48.570;7.916;2023-06-04T13:36:47;4.20;;;2.60;;
10154;SDS011;5118;48.570;7.916;2023-06-04T13:39:15;3.38;;;3.03;;
10154;SDS011;5118;48.570;7.916;2023-06-04T13:41:43;4.03;;;2.80;;
10154;SDS011;5118;48.570;7.916;2023-06-04T13:44:13;3.05;;;2.80;;
10154;SDS011;5118;48.570;7.916;2023-06-04T13:46:42;5.28;;;2.78;;
10154;SDS011;5118;48.570;7.916;2023-06-04T13:49:10;3.50;;;2.97;;
10154;SDS011;5118;48.570;7.916;2023-06-04T13:51:38;2.92;;;2.58;;
10154;SDS011;5118;48.570;7.916;2023-06-04T13:54:07;4.50;;;2.90;;
10154;SDS011;5118;48.570;7.916;2023-06-04T13:56:38;4.10;;;2.90;;
10154;SDS011;5118;48.570;7.916;2023-06-04T13:59:07;4.13;;;2.97;;
10154;SDS011;5118;48.570;7.916;2023-06-04T14:01:36;5.35;;;2.80;;
10154;SDS011;5118;48.570;7.916;2023-06-04T14:04:05;5.05;;;2.63;;
10154;SDS011;5118;48.570;7.916;2023-06-04T14:06:34;3.47;;;2.75;;
10154;SDS011;5118;48.570;7.916;2023-06-04T14:09:04;3.95;;;3.10;;
10154;SDS011;5118;48.570;7.916;2023-06-04T14:11:37;3.97;;;2.80;;
10154;SDS011;5118;48.570;7.916;2023-06-04T14:14:06;2.92;;;2.72;;
10154;SDS011;5118;48.570;7.916;2023-06-04T14:16:34;4.30;;;2.78;;
10154;SDS011;5118;48.570;7.916;2023-06-04T14:19:04;3.00;;;2.80;;
10154;SDS011;5118;48.570;7.916;2023-06-04T14:21:32;4.38;;;2.75;;
10154;SDS011;5118;48.570;7.916;2023-06-04T14:24:02;3.17;;;2.80;;
10154;SDS011;5118;48.570;7.916;2023-06-04T14:26:31;2.90;;;2.65;;
10154;SDS011;5118;48.570;7.916;2023-06-04T14:29:00;3.63;;;2.60;;
10154;SDS011;5118;48.570;7.916;2023-06-04T14:31:28;4.70;;;2.60;;
10154;SDS011;5118;48.570;7.916;2023-06-04T14:33:57;3.85;;;2.80;;
10154;SDS011;5118;48.570;7.916;2023-06-04T14:36:26;4.47;;;2.75;;
10154;SDS011;5118;48.570;7.916;2023-06-04T14:38:56;2.67;;;2.47;;
10154;SDS011;5118;48.570;7.916;2023-06-04T14:41:24;3.03;;;2.72;;
10154;SDS011;5118;48.570;7.916;2023-06-04T14:43:55;7.18;;;2.75;;
10154;SDS011;5118;48.570;7.916;2023-06-04T14:46:24;3.55;;;2.63;;
10154;SDS011;5118;48.570;7.916;2023-06-04T14:48:56;4.18;;;2.88;;
10154;SDS011;5118;48.570;7.916;2023-06-04T14:51:26;7.20;;;2.67;;
10154;SDS011;5118;48.570;7.916;2023-06-04T14:54:01;3.88;;;2.90;;
10154;SDS011;5118;48.570;7.916;2023-06-04T14:56:31;3.83;;;2.63;;
10154;SDS011;5118;48.570;7.916;2023-06-04T14:59:00;3.50;;;2.90;;
10154;SDS011;5118;48.570;7.916;2023-06-04T15:01:33;4.00;;;3.13;;
10154;SDS011;5118;48.570;7.916;2023-06-04T15:04:02;3.72;;;2.90;;
10154;SDS011;5118;48.570;7.916;2023-06-04T15:06:32;4.15;;;2.70;;
10154;SDS011;5118;48.570;7.916;2023-06-04T15:09:02;4.82;;;2.83;;
10154;SDS011;5118;48.570;7.916;2023-06-04T15:11:31;3.13;;;2.92;;
10154;SDS011;5118;48.570;7.916;2023-06-04T15:14:01;3.47;;;3.17;;
10154;SDS011;5118;48.570;7.916;2023-06-04T15:16:30;3.20;;;2.90;;
10154;SDS011;5118;48.570;7.916;2023-06-04T15:19:02;3.38;;;3.08;;
10154;SDS011;5118;48.570;7.916;2023-06-04T15:21:32;4.03;;;2.72;;
10154;SDS011;5118;48.570;7.916;2023-06-04T15:24:05;3.42;;;3.13;;
10154;SDS011;5118;48.570;7.916;2023-06-04T15:26:37;4.72;;;3.05;;
10154;SDS011;5118;48.570;7.916;2023-06-04T15:29:06;3.50;;;2.80;;